Santander (Cantabria), España
technology@conceptualklt.es

Stage 1- Source integration

We are building the path to autonomous maritime navigation based on DLT technologies

We are taking data from our AIS station located in our headquarters in Santander

Vessels details

Tags Name IMO Mmsinumber Callsign Flag Heading Draught Type Photos
britannyferries CONNEMARA 9349760 209236000 5BEQ4 CY|Cyprus 109.0 6.4 Ferry CONNEMARA Image
britannyferries CAP FINISTERE 9198927 226318000 FLSO FR|France 122.0 6.7 Passenger ship CAP FINISTERE Image
britannyferries BAIE DE SEINE 9212163 226338000 FISL FR|France 344.0 5.6 Ferry BAIE DE SEINE Image
britannyferries PONT AVEN 9268708 228183600 FNPN FR|France 128.0 6.8 Passenger ship PONT AVEN Image

Vessels last positions

Tags Mmsinumber Latitude Longitude Callsign Course Speed Destination Etatime Position received
britannyferries 226338000 54.37926 18.65975 FISL 276 0.0 PL GDANSK 2019-03-04 06:00:00 2019-03-04 06:55:25
britannyferries 209236000 43.92848 -3.97577 5BEQ4 341 18.7 CORK 2019-03-18 18:30:00 2019-03-17 17:40:39
britannyferries 228183600 48.64080 -2.03181 FNPN 51 0.8 SAINT MALO 2019-03-18 07:15:00 2019-03-18 07:10:19
britannyferries 226318000 49.07833 -3.08067 FLSO 242 19.8 FR ROS 2019-03-18 10:35:00 2019-03-18 08:15:45
britannyferries 226318000 48.98100 -3.33917 FLSO 241 23.4 FR ROS 2019-03-18 10:35:00 2019-03-18 08:52:26

Ports

Name Country Isocode Country Name Locode
Arrecife ES Spain ESACE
Cartagena ES Spain ESCAR
Puerto Del Rosario ES Spain ESFUE
Puerto De Gandia ES Spain ESGAN
Palamos ES Spain ESPAL
Santander ES Spain ESSDR
Vigo ES Spain ESVGO

Weather

LatitudeLongitudeDescriptionTemperatureHumidityPressureTemp_MinTemp_MaxWind_SpeedWind_DegCloudsVisibilityTimestamp
43.4300 -3.8000 clear sky 288.8 63 1027 286.5 290.4 2.10 50 0 10000 2019-03-22 12:00:48
43.4300 -3.8000 clear sky 288.8 54 1027 286.5 290.9 0.50 40 0 10000 2019-03-22 11:01:16
43.4300 -3.8000 scattered clouds 282.2 81 1031 281.2 283.2 1.50 180 40 10000 2019-03-21 08:50:47
43.4300 -3.8000 few clouds 285.4 62 1032 284.8 286.2 5.10 50 20 10000 2019-03-20 16:51:16
43.4300 -3.8000 few clouds 285.8 62 1032 284.8 286.5 5.70 50 20 10000 2019-03-20 15:51:16
43.4300 -3.8000 few clouds 286.1 62 1032 285.9 286.5 5.10 50 20 10000 2019-03-20 14:51:16
43.4300 -3.8000 few clouds 286.2 62 1033 285.4 287.0 5.70 50 20 10000 2019-03-20 13:51:16
43.4300 -3.8000 scattered clouds 286.0 66 1033 284.8 287.0 3.10 40 40 10000 2019-03-20 12:51:16
43.4300 -3.8000 scattered clouds 285.5 76 1034 284.8 285.9 2.60 50 40 10000 2019-03-20 11:51:16
43.4300 -3.8000 scattered clouds 285.2 71 1034 284.3 285.9 1.50 20 40 10000 2019-03-20 10:51:16
43.4300 -3.8000 light rain 282.9 100 1033 282.0 284.3 1.50 240 75 10000 2019-03-20 08:51:16
43.4300 -3.8000 broken clouds 282.0 93 1033 281.5 282.6 2.10 190 75 10000 2019-03-20 07:51:15
43.4300 -3.8000 broken clouds 284.9 71 1030 283.7 286.2 2.10 20 75 10000 2019-03-19 16:03:06
43.4300 -3.8000 light rain 285.7 71 1030 285.4 286.2 2.10 20 40 10000 2019-03-19 14:03:00
43.4300 -3.8000 broken clouds 285.0 76 1030 284.3 286.2 1.50 20 75 10000 2019-03-19 12:58:04
43.4300 -3.8000 light rain 285.2 81 1030 284.3 285.9 3.10 20 75 10000 2019-03-19 12:03:06
43.4300 -3.8000 scattered clouds 285.1 76 1030 284.3 286.2 2.10 30 40 10000 2019-03-19 11:03:06
43.4300 -3.8000 scattered clouds 284.5 87 1030 283.7 285.4 3.60 30 40 10000 2019-03-19 10:02:55
43.4300 -3.8000 broken clouds 284.1 76 1029 282.6 285.2 4.10 360 75 10000 2019-03-19 08:58:04
43.4300 -3.8000 light rain 283.6 87 1029 282.6 284.8 3.60 350 75 10000 2019-03-19 08:02:55
43.4300 -3.8000 light rain 283.1 81 1028 282.0 284.3 4.10 320 75 10000 2019-03-19 07:03:05
43.4300 -3.8000 light rain 282.9 93 1028 282.0 284.3 3.10 250 75 9000 2019-03-19 06:02:56
43.4300 -3.8000 broken clouds 284.8 66 1029 283.7 285.4 3.60 330 75 10000 2019-03-18 16:06:15
43.4300 -3.8000 broken clouds 284.9 66 1030 284.3 285.4 4.10 320 75 10000 2019-03-18 15:06:15
43.4300 -3.8000 light rain 284.3 87 1030 283.2 284.8 4.60 290 40 10000 2019-03-18 12:26:15
43.4300 -3.8000 light rain 283.8 87 1030 282.6 284.8 5.70 300 75 10000 2019-03-18 11:26:15
43.4300 -3.8000 broken clouds 284.1 81 1030 283.2 285.4 4.60 260 75 10000 2019-03-18 10:26:16
43.4300 -3.8000 broken clouds 283.1 81 1030 282.0 284.8 2.60 210 75 10000 2019-03-18 09:26:16
43.4300 -3.8000 broken clouds 281.3 93 1029 280.9 282.0 2.60 220 75 10000 2019-03-18 08:26:16
43.4300 -3.8000 broken clouds 284.4 71 1030 283.2 285.9 2.60 230 75 10000 2019-03-15 08:18:05
43.4300 -3.8000 broken clouds 284.4 71 1030 283.2 285.9 2.60 230 75 10000 2019-03-15 08:18:05
43.4300 -3.8000 broken clouds 285.9 62 1033 285.4 287.0 8.70 280 75 10000 2019-03-14 12:03:06